sensor_id;sensor_type;location;lat;lon;timestamp;P1;durP1;ratioP1;P2;durP2;ratioP2
22764;SDS011;11549;50.852;3.816;2023-04-03T00:01:32;22.42;;;16.33;;
22764;SDS011;11549;50.852;3.816;2023-04-03T00:04:03;23.33;;;16.50;;
22764;SDS011;11549;50.852;3.816;2023-04-03T00:06:32;23.33;;;16.70;;
22764;SDS011;11549;50.852;3.816;2023-04-03T00:09:01;21.50;;;16.20;;
22764;SDS011;11549;50.852;3.816;2023-04-03T00:11:29;19.30;;;15.55;;
22764;SDS011;11549;50.852;3.816;2023-04-03T00:13:58;21.38;;;14.82;;
22764;SDS011;11549;50.852;3.816;2023-04-03T00:16:26;19.65;;;15.32;;
22764;SDS011;11549;50.852;3.816;2023-04-03T00:18:55;20.88;;;15.63;;
22764;SDS011;11549;50.852;3.816;2023-04-03T00:21:24;22.55;;;16.13;;
22764;SDS011;11549;50.852;3.816;2023-04-03T00:23:53;21.67;;;15.20;;
22764;SDS011;11549;50.852;3.816;2023-04-03T00:26:21;20.98;;;15.38;;
22764;SDS011;11549;50.852;3.816;2023-04-03T00:28:49;20.30;;;14.88;;
22764;SDS011;11549;50.852;3.816;2023-04-03T00:31:18;18.40;;;15.27;;
22764;SDS011;11549;50.852;3.816;2023-04-03T00:33:46;19.38;;;14.82;;
22764;SDS011;11549;50.852;3.816;2023-04-03T00:36:15;20.58;;;15.10;;
22764;SDS011;11549;50.852;3.816;2023-04-03T00:38:45;20.48;;;14.40;;
22764;SDS011;11549;50.852;3.816;2023-04-03T00:41:13;18.30;;;13.93;;
22764;SDS011;11549;50.852;3.816;2023-04-03T00:43:42;19.38;;;14.02;;
22764;SDS011;11549;50.852;3.816;2023-04-03T00:46:10;19.38;;;13.98;;
22764;SDS011;11549;50.852;3.816;2023-04-03T00:48:39;19.48;;;13.50;;
22764;SDS011;11549;50.852;3.816;2023-04-03T00:51:11;19.00;;;13.60;;
22764;SDS011;11549;50.852;3.816;2023-04-03T00:53:43;16.30;;;13.02;;
22764;SDS011;11549;50.852;3.816;2023-04-03T00:56:16;17.42;;;13.57;;
22764;SDS011;11549;50.852;3.816;2023-04-03T00:58:48;17.37;;;13.33;;
22764;SDS011;11549;50.852;3.816;2023-04-03T01:01:20;18.55;;;13.63;;
22764;SDS011;11549;50.852;3.816;2023-04-03T01:03:51;18.40;;;12.75;;
22764;SDS011;11549;50.852;3.816;2023-04-03T01:06:20;19.58;;;13.05;;
22764;SDS011;11549;50.852;3.816;2023-04-03T01:08:54;17.90;;;13.30;;
22764;SDS011;11549;50.852;3.816;2023-04-03T01:11:23;18.50;;;13.45;;
22764;SDS011;11549;50.852;3.816;2023-04-03T01:13:51;17.20;;;12.63;;
22764;SDS011;11549;50.852;3.816;2023-04-03T01:16:20;17.52;;;12.48;;
22764;SDS011;11549;50.852;3.816;2023-04-03T01:18:48;20.33;;;12.73;;
22764;SDS011;11549;50.852;3.816;2023-04-03T01:24:29;20.13;;;12.68;;
22764;SDS011;11549;50.852;3.816;2023-04-03T01:27:02;16.75;;;12.82;;
22764;SDS011;11549;50.852;3.816;2023-04-03T01:29:32;17.73;;;12.32;;
22764;SDS011;11549;50.852;3.816;2023-04-03T01:32:02;17.98;;;12.00;;
22764;SDS011;11549;50.852;3.816;2023-04-03T01:34:31;15.20;;;11.00;;
22764;SDS011;11549;50.852;3.816;2023-04-03T01:37:00;15.82;;;10.95;;
22764;SDS011;11549;50.852;3.816;2023-04-03T01:39:28;14.63;;;11.10;;
22764;SDS011;11549;50.852;3.816;2023-04-03T01:41:56;14.80;;;10.57;;
22764;SDS011;11549;50.852;3.816;2023-04-03T01:44:25;19.13;;;11.43;;
22764;SDS011;11549;50.852;3.816;2023-04-03T01:46:54;15.68;;;11.30;;
22764;SDS011;11549;50.852;3.816;2023-04-03T01:49:24;14.45;;;10.90;;
22764;SDS011;11549;50.852;3.816;2023-04-03T01:51:52;15.75;;;11.18;;
22764;SDS011;11549;50.852;3.816;2023-04-03T01:54:21;16.75;;;10.40;;
22764;SDS011;11549;50.852;3.816;2023-04-03T01:56:49;13.70;;;9.90;;
22764;SDS011;11549;50.852;3.816;2023-04-03T01:59:17;18.65;;;11.30;;
22764;SDS011;11549;50.852;3.816;2023-04-03T02:01:46;18.02;;;11.15;;
22764;SDS011;11549;50.852;3.816;2023-04-03T02:04:14;16.33;;;11.07;;
22764;SDS011;11549;50.852;3.816;2023-04-03T02:06:44;16.00;;;10.90;;
22764;SDS011;11549;50.852;3.816;2023-04-03T02:09:12;17.05;;;10.65;;
22764;SDS011;11549;50.852;3.816;2023-04-03T02:11:40;13.90;;;10.35;;
22764;SDS011;11549;50.852;3.816;2023-04-03T02:14:09;16.48;;;10.10;;
22764;SDS011;11549;50.852;3.816;2023-04-03T02:16:37;14.57;;;9.85;;
22764;SDS011;11549;50.852;3.816;2023-04-03T02:19:06;15.02;;;10.57;;
22764;SDS011;11549;50.852;3.816;2023-04-03T02:21:34;13.65;;;9.75;;
22764;SDS011;11549;50.852;3.816;2023-04-03T02:24:04;15.52;;;10.70;;
22764;SDS011;11549;50.852;3.816;2023-04-03T02:26:33;16.52;;;10.85;;
22764;SDS011;11549;50.852;3.816;2023-04-03T02:29:01;15.02;;;10.65;;
22764;SDS011;11549;50.852;3.816;2023-04-03T02:31:30;12.65;;;10.35;;
22764;SDS011;11549;50.852;3.816;2023-04-03T02:33:58;15.85;;;11.80;;
22764;SDS011;11549;50.852;3.816;2023-04-03T02:36:27;14.63;;;10.63;;
22764;SDS011;11549;50.852;3.816;2023-04-03T02:38:58;13.35;;;10.38;;
22764;SDS011;11549;50.852;3.816;2023-04-03T02:41:27;14.07;;;10.05;;
22764;SDS011;11549;50.852;3.816;2023-04-03T02:44:02;13.27;;;9.48;;
22764;SDS011;11549;50.852;3.816;2023-04-03T02:46:30;14.48;;;9.98;;
22764;SDS011;11549;50.852;3.816;2023-04-03T02:48:59;13.77;;;9.75;;
22764;SDS011;11549;50.852;3.816;2023-04-03T02:51:28;14.95;;;9.75;;
22764;SDS011;11549;50.852;3.816;2023-04-03T02:53:56;13.18;;;10.00;;
22764;SDS011;11549;50.852;3.816;2023-04-03T02:56:24;13.63;;;9.48;;
22764;SDS011;11549;50.852;3.816;2023-04-03T02:58:54;14.30;;;9.32;;
22764;SDS011;11549;50.852;3.816;2023-04-03T03:01:22;13.00;;;9.50;;
22764;SDS011;11549;50.852;3.816;2023-04-03T03:03:51;14.90;;;9.52;;
22764;SDS011;11549;50.852;3.816;2023-04-03T03:06:20;14.07;;;9.75;;
22764;SDS011;11549;50.852;3.816;2023-04-03T03:08:48;16.42;;;9.88;;
22764;SDS011;11549;50.852;3.816;2023-04-03T03:11:16;14.00;;;9.48;;
22764;SDS011;11549;50.852;3.816;2023-04-03T03:13:45;13.98;;;9.60;;
22764;SDS011;11549;50.852;3.816;2023-04-03T03:16:14;13.90;;;9.82;;
22764;SDS011;11549;50.852;3.816;2023-04-03T03:18:42;14.10;;;9.63;;
22764;SDS011;11549;50.852;3.816;2023-04-03T03:21:11;13.60;;;9.55;;
22764;SDS011;11549;50.852;3.816;2023-04-03T03:23:39;12.43;;;9.52;;
22764;SDS011;11549;50.852;3.816;2023-04-03T03:26:08;14.27;;;9.55;;
22764;SDS011;11549;50.852;3.816;2023-04-03T03:28:38;16.20;;;9.85;;
22764;SDS011;11549;50.852;3.816;2023-04-03T03:31:08;13.70;;;9.65;;
22764;SDS011;11549;50.852;3.816;2023-04-03T03:33:40;14.65;;;9.90;;
22764;SDS011;11549;50.852;3.816;2023-04-03T03:36:08;14.82;;;9.88;;
22764;SDS011;11549;50.852;3.816;2023-04-03T03:38:38;13.50;;;9.98;;
22764;SDS011;11549;50.852;3.816;2023-04-03T03:41:07;15.50;;;10.73;;
22764;SDS011;11549;50.852;3.816;2023-04-03T03:43:35;15.25;;;10.48;;
22764;SDS011;11549;50.852;3.816;2023-04-03T03:46:03;16.15;;;10.95;;
22764;SDS011;11549;50.852;3.816;2023-04-03T03:48:32;14.13;;;10.40;;
22764;SDS011;11549;50.852;3.816;2023-04-03T03:51:01;16.15;;;10.45;;
22764;SDS011;11549;50.852;3.816;2023-04-03T03:53:30;15.15;;;10.10;;
22764;SDS011;11549;50.852;3.816;2023-04-03T03:55:58;16.38;;;10.18;;
22764;SDS011;11549;50.852;3.816;2023-04-03T03:58:27;15.40;;;10.25;;
22764;SDS011;11549;50.852;3.816;2023-04-03T04:00:55;14.40;;;10.18;;
22764;SDS011;11549;50.852;3.816;2023-04-03T04:03:23;16.30;;;10.55;;
22764;SDS011;11549;50.852;3.816;2023-04-03T04:05:52;12.38;;;9.82;;
22764;SDS011;11549;50.852;3.816;2023-04-03T04:08:22;13.82;;;10.38;;
22764;SDS011;11549;50.852;3.816;2023-04-03T04:10:51;15.25;;;10.90;;
22764;SDS011;11549;50.852;3.816;2023-04-03T04:13:19;15.93;;;10.98;;
22764;SDS011;11549;50.852;3.816;2023-04-03T04:15:48;17.00;;;11.00;;
22764;SDS011;11549;50.852;3.816;2023-04-03T04:18:16;17.38;;;10.73;;
22764;SDS011;11549;50.852;3.816;2023-04-03T04:20:46;17.05;;;10.68;;
22764;SDS011;11549;50.852;3.816;2023-04-03T04:23:15;16.88;;;11.48;;
22764;SDS011;11549;50.852;3.816;2023-04-03T04:25:45;16.08;;;11.30;;
22764;SDS011;11549;50.852;3.816;2023-04-03T04:28:14;15.27;;;11.10;;
22764;SDS011;11549;50.852;3.816;2023-04-03T04:30:42;16.05;;;11.27;;
22764;SDS011;11549;50.852;3.816;2023-04-03T04:33:11;16.05;;;11.18;;
22764;SDS011;11549;50.852;3.816;2023-04-03T04:35:41;17.33;;;11.43;;
22764;SDS011;11549;50.852;3.816;2023-04-03T04:38:10;14.27;;;11.05;;
22764;SDS011;11549;50.852;3.816;2023-04-03T04:40:38;14.70;;;10.93;;
22764;SDS011;11549;50.852;3.816;2023-04-03T04:43:09;15.10;;;11.40;;
22764;SDS011;11549;50.852;3.816;2023-04-03T04:45:41;15.38;;;11.23;;
22764;SDS011;11549;50.852;3.816;2023-04-03T04:48:09;15.18;;;11.43;;
22764;SDS011;11549;50.852;3.816;2023-04-03T05:10:26;18.88;;;12.10;;
22764;SDS011;11549;50.852;3.816;2023-04-03T05:27:22;18.27;;;13.30;;
22764;SDS011;11549;50.852;3.816;2023-04-03T05:29:52;17.92;;;12.77;;
22764;SDS011;11549;50.852;3.816;2023-04-03T05:32:20;20.63;;;13.82;;
22764;SDS011;11549;50.852;3.816;2023-04-03T05:34:49;20.65;;;14.18;;
22764;SDS011;11549;50.852;3.816;2023-04-03T05:37:17;17.13;;;11.95;;
